Погода Уголна неделю

Смоленская область, Россия

21 - 27 мая
  • 21мая
    Сегодня
    +10°
    +23°
    Практически безоблачно
    ВремяПогодаТемператураВлажностьДавлениеВетер, м/сВероятность осадков
    00:00Ясно и безоблачно+12°C89 %744 мм2.5 м/с2 %
    03:00Ясно и безоблачно+10°C93 %744 мм2.4 м/с2 %
    06:00Ясно и безоблачно+12°C90 %744 мм1.6 м/с2 %
    09:00Ясно и безоблачно+20°C71 %745 мм0.6 м/с2 %
    12:00Ясно и безоблачно+22°C58 %746 мм0.6 м/с2 %
    15:00Практически безоблачно+23°C56 %745 мм0.5 м/с8 %
    18:00Облачно с прояснениями+22°C62 %745 мм1.0 м/с42 %
    21:00Небольшая облачность+16°C85 %745 мм1.8 м/с10 %
  • 22мая
    Среда
    +10°
    +23°
    Небольшая облачность, возможен дождь с грозой
    ВремяПогодаТемператураВлажностьДавлениеВетер, м/сВероятность осадков
    00:00Ясно и безоблачно+12°C94 %744 мм1.4 м/с1 %
    03:00Ясно и безоблачно+10°C98 %745 мм1.8 м/с2 %
    06:00Ясно и безоблачно+12°C97 %745 мм2.3 м/с2 %
    09:00Ясно и безоблачно+19°C78 %746 мм2.7 м/с2 %
    12:00Практически безоблачно+22°C66 %746 мм2.1 м/с27 %
    15:00Небольшая облачность, возможен дождь с грозой+22°C60 %745 мм1.4 м/с53 %
    18:00Облачно с прояснениями, ливень+21°C72 %746 мм3.4 м/с67 %
    21:00Облачно с прояснениями+16°C88 %746 мм2.4 м/с13 %
  • 23мая
    Четверг
    +8°
    +22°
    Практически безоблачно
    ВремяПогодаТемператураВлажностьДавлениеВетер, м/сВероятность осадков
    00:00Ясно и безоблачно+14°C91 %746 мм3.3 м/с1 %
    03:00Ясно и безоблачно+12°C78 %747 мм3.8 м/с2 %
    06:00Ясно и безоблачно+11°C74 %748 мм4.8 м/с3 %
    09:00Ясно и безоблачно+17°C68 %749 мм5.0 м/с3 %
    12:00Ясно и безоблачно+20°C58 %749 мм5.8 м/с11 %
    15:00Практически безоблачно+21°C51 %749 мм5.9 м/с14 %
    18:00Небольшая облачность+21°C53 %749 мм6.3 м/с8 %
    21:00Ясно и безоблачно+16°C58 %750 мм5.0 м/с2 %
  • 24мая
    Пятница
    +7°
    +21°
    Практически безоблачно
    ВремяПогодаТемператураВлажностьДавлениеВетер, м/сВероятность осадков
    00:00Ясно и безоблачно+12°C62 %751 мм5.0 м/с2 %
    03:00Ясно и безоблачно+10°C62 %752 мм4.5 м/с2 %
    06:00Ясно и безоблачно+9°C65 %753 мм4.5 м/с2 %
    09:00Практически безоблачно+15°C53 %753 мм5.3 м/с2 %
    12:00Ясно и безоблачно+18°C43 %754 мм5.0 м/с2 %
    15:00Практически безоблачно+20°C41 %754 мм4.6 м/с2 %
    18:00Ясно и безоблачно+20°C44 %753 мм4.4 м/с2 %
    21:00Ясно и безоблачно+15°C62 %753 мм3.0 м/с2 %
  • 25мая
    Суббота
    +7°
    +22°
    Ясно и безоблачно
    ВремяПогодаТемператураВлажностьДавлениеВетер, м/сВероятность осадков
    00:00Ясно и безоблачно+10°C69 %753 мм3.0 м/с2 %
    03:00Ясно и безоблачно+9°C74 %753 мм2.9 м/с2 %
    06:00Ясно и безоблачно+8°C75 %753 мм3.0 м/с2 %
    09:00Ясно и безоблачно+16°C60 %754 мм2.8 м/с2 %
    12:00Ясно и безоблачно+19°C41 %753 мм3.1 м/с2 %
    15:00Ясно и безоблачно+21°C42 %752 мм2.9 м/с3 %
    18:00Ясно и безоблачно+21°C45 %751 мм2.2 м/с2 %
    21:00Ясно и безоблачно+15°C72 %750 мм2.1 м/с2 %
Мы используем cookies
Соглашаюсь